Time;durP1;ratioP1;P1;durP2;ratioP2;P2;SDS_P1;SDS_P2;PMS_P1;PMS_P2;Temp;Humidity;BMP_temperature;BMP_pressure;BME280_temperature;BME280_humidity;BME280_pressure;Samples;Min_cycle;Max_cycle;Signal;HPM_P1;HPM_P2
2022/05/04 00:00:27;;;;;;;0.20;0.20;;;7.70;99.90;;;;;;5017197;28;20290;-84
2022/05/04 00:02:53;;;;;;;0.20;0.20;;;7.70;99.90;;;;;;5023924;28;20548;-84
2022/05/04 00:05:19;;;;;;;0.30;0.30;;;7.70;99.90;;;;;;5033790;28;20208;-84
2022/05/04 00:07:45;;;;;;;0.30;0.30;;;7.80;99.90;;;;;;5021034;28;20616;-84
2022/05/04 00:10:11;;;;;;;0.30;0.30;;;7.70;99.90;;;;;;5014566;28;20504;-84
2022/05/04 00:12:36;;;;;;;0.20;0.20;;;7.90;99.90;;;;;;5021601;28;20197;-83
2022/05/04 00:15:03;;;;;;;0.30;0.30;;;8.00;99.90;;;;;;5022697;28;20556;-84
2022/05/04 00:17:29;;;;;;;0.30;0.30;;;8.00;99.90;;;;;;5030100;28;20203;-84
2022/05/04 00:19:54;;;;;;;0.20;0.20;;;7.90;99.90;;;;;;5021414;28;20458;-85
2022/05/04 00:22:21;;;;;;;0.30;0.30;;;7.60;99.90;;;;;;5022653;28;20202;-84
2022/05/04 00:24:47;;;;;;;0.30;0.30;;;7.50;99.90;;;;;;5019368;28;20215;-83
2022/05/04 00:27:15;;;;;;;0.30;0.30;;;7.70;99.90;;;;;;5027778;28;20440;-85
2022/05/04 00:29:42;;;;;;;0.30;0.30;;;7.60;99.90;;;;;;5018742;28;20442;-84
2022/05/04 00:32:09;;;;;;;0.30;0.30;;;7.40;99.90;;;;;;5016459;28;20499;-84
2022/05/04 00:34:35;;;;;;;0.20;0.20;;;7.30;99.90;;;;;;5032121;28;20442;-85
2022/05/04 00:37:01;;;;;;;0.30;0.30;;;7.50;99.90;;;;;;5018145;28;20573;-85
2022/05/04 00:39:27;;;;;;;0.20;0.20;;;7.30;99.90;;;;;;5017554;28;20246;-84
2022/05/04 00:41:53;;;;;;;0.30;0.30;;;7.20;99.90;;;;;;5015677;28;21056;-84
2022/05/04 00:44:19;;;;;;;0.30;0.30;;;7.10;99.90;;;;;;5021121;28;20570;-84
2022/05/04 00:46:45;;;;;;;0.30;0.30;;;7.20;99.90;;;;;;5025894;28;20533;-85
2022/05/04 00:49:10;;;;;;;0.20;0.20;;;7.10;99.90;;;;;;5029736;28;20203;-85
2022/05/04 00:51:37;;;;;;;0.27;0.27;;;7.10;99.90;;;;;;5030700;28;20210;-84
2022/05/04 00:54:03;;;;;;;0.30;0.30;;;7.20;99.90;;;;;;5027195;28;20184;-84
2022/05/04 00:56:30;;;;;;;0.30;0.30;;;7.30;99.90;;;;;;5025281;28;20613;-84
2022/05/04 00:58:56;;;;;;;0.30;0.30;;;7.20;99.90;;;;;;5030292;28;20440;-85
2022/05/04 01:01:30;;;;;;;0.30;0.30;;;7.20;99.90;;;;;;5021103;28;21127;-84
2022/05/04 01:03:57;;;;;;;0.30;0.30;;;7.10;99.90;;;;;;5020254;28;20456;-84
2022/05/04 01:06:24;;;;;;;0.27;0.27;;;6.80;99.90;;;;;;5017359;28;20530;-85
2022/05/04 01:08:50;;;;;;;0.30;0.30;;;6.90;99.90;;;;;;5026866;28;20553;-85
2022/05/04 01:11:17;;;;;;;0.30;0.30;;;7.00;99.90;;;;;;5010184;28;20443;-85
2022/05/04 01:13:43;;;;;;;0.27;0.27;;;6.80;99.90;;;;;;5037580;28;20455;-84
2022/05/04 01:16:08;;;;;;;0.30;0.30;;;6.60;99.90;;;;;;5027817;28;20468;-85
2022/05/04 01:18:34;;;;;;;0.30;0.30;;;6.50;99.90;;;;;;5030018;28;20894;-85
2022/05/04 01:21:01;;;;;;;0.30;0.30;;;6.50;99.90;;;;;;5025922;28;20271;-85
2022/05/04 01:23:27;;;;;;;0.30;0.30;;;6.40;99.90;;;;;;5025760;28;20187;-85
2022/05/04 01:25:55;;;;;;;0.30;0.30;;;6.40;99.90;;;;;;5014632;28;20792;-85
2022/05/04 01:28:20;;;;;;;0.30;0.30;;;6.40;99.90;;;;;;5038831;28;20202;-85
2022/05/04 01:30:46;;;;;;;0.30;0.30;;;6.30;99.90;;;;;;5023730;28;20451;-84
2022/05/04 01:33:12;;;;;;;0.23;0.23;;;6.40;99.90;;;;;;5016620;28;20574;-84
2022/05/04 01:35:38;;;;;;;0.30;0.30;;;6.30;99.90;;;;;;5026055;28;20604;-85
2022/05/04 01:38:04;;;;;;;0.40;0.40;;;6.20;99.90;;;;;;5039324;28;20224;-85
2022/05/04 01:40:30;;;;;;;0.30;0.30;;;6.30;99.90;;;;;;5023751;28;20532;-85
2022/05/04 01:42:55;;;;;;;0.27;0.27;;;6.30;99.90;;;;;;5029466;28;20190;-85
2022/05/04 01:45:21;;;;;;;0.30;0.30;;;6.10;99.90;;;;;;5031756;28;20744;-85
2022/05/04 01:47:48;;;;;;;0.30;0.30;;;6.20;99.90;;;;;;5017228;28;20192;-84
2022/05/04 01:50:14;;;;;;;0.30;0.30;;;6.10;99.90;;;;;;5027488;28;20441;-85
2022/05/04 01:52:39;;;;;;;0.30;0.30;;;6.20;99.90;;;;;;5017446;28;20514;-85
2022/05/04 01:55:06;;;;;;;0.30;0.30;;;6.20;99.90;;;;;;5025217;28;20255;-85
2022/05/04 01:57:32;;;;;;;0.20;0.20;;;6.20;99.90;;;;;;5033059;28;20230;-84
2022/05/04 01:59:57;;;;;;;0.30;0.30;;;6.10;99.90;;;;;;5026087;28;20813;-85
2022/05/04 02:02:25;;;;;;;0.30;0.30;;;6.10;99.90;;;;;;5025642;28;20184;-85
2022/05/04 02:04:51;;;;;;;0.30;0.30;;;6.20;99.90;;;;;;5024658;28;20282;-85
2022/05/04 02:07:16;;;;;;;0.30;0.30;;;6.20;99.90;;;;;;5025812;28;20763;-85
2022/05/04 02:09:42;;;;;;;0.40;0.40;;;6.20;99.90;;;;;;5036791;28;20187;-85
2022/05/04 02:12:08;;;;;;;0.30;0.30;;;6.30;99.90;;;;;;5024579;28;20188;-85
2022/05/04 02:14:34;;;;;;;0.33;0.33;;;6.40;99.90;;;;;;5028576;28;20231;-84
2022/05/04 02:17:00;;;;;;;0.30;0.30;;;6.30;99.90;;;;;;5023042;28;20218;-83
2022/05/04 02:19:25;;;;;;;0.30;0.30;;;6.20;99.90;;;;;;5029559;28;20442;-85
2022/05/04 02:21:51;;;;;;;0.30;0.30;;;6.20;99.90;;;;;;5030626;28;20537;-85
2022/05/04 02:24:17;;;;;;;0.30;0.30;;;6.30;99.90;;;;;;5038250;28;20184;-84
2022/05/04 02:26:42;;;;;;;0.30;0.30;;;6.30;99.90;;;;;;5024104;28;20457;-85
2022/05/04 02:29:08;;;;;;;0.30;0.30;;;6.50;99.90;;;;;;5029664;28;20183;-84
2022/05/04 02:31:33;;;;;;;0.30;0.30;;;6.20;99.90;;;;;;5035174;28;20190;-85
2022/05/04 02:33:59;;;;;;;0.30;0.30;;;6.30;99.90;;;;;;5017873;28;21274;-85
2022/05/04 02:39:08;;;;;;;0.30;0.30;;;6.30;99.90;;;;;;5017329;28;20269;-85
2022/05/04 02:41:34;;;;;;;0.30;0.30;;;6.20;99.90;;;;;;5025002;28;20442;-85
2022/05/04 02:44:02;;;;;;;0.30;0.30;;;6.10;99.90;;;;;;5019858;28;20192;-85
2022/05/04 02:46:29;;;;;;;0.30;0.30;;;6.10;99.90;;;;;;5018749;28;20266;-86
2022/05/04 02:48:55;;;;;;;0.30;0.30;;;6.20;99.90;;;;;;5025702;28;20487;-85
2022/05/04 02:51:21;;;;;;;0.33;0.33;;;6.20;99.90;;;;;;5028161;28;20879;-85
2022/05/04 02:53:46;;;;;;;0.40;0.40;;;6.10;99.90;;;;;;5036206;28;20202;-85
2022/05/04 02:56:15;;;;;;;0.30;0.30;;;6.00;99.90;;;;;;5014043;28;20230;-86
2022/05/04 02:58:42;;;;;;;0.37;0.37;;;6.00;99.90;;;;;;5032444;28;20304;-85
2022/05/04 03:04:06;;;;;;;0.30;0.30;;;5.90;99.90;;;;;;5025907;28;20433;-85
2022/05/04 03:06:35;;;;;;;0.30;0.30;;;5.80;99.90;;;;;;5022820;28;20446;-85
2022/05/04 03:09:01;;;;;;;0.30;0.30;;;5.80;99.90;;;;;;5026332;28;20474;-85
2022/05/04 03:14:11;;;;;;;0.37;0.37;;;5.70;99.90;;;;;;5038593;28;20537;-85
2022/05/04 03:16:38;;;;;;;0.40;0.40;;;5.90;99.90;;;;;;5026758;28;20485;-85
2022/05/04 03:19:04;;;;;;;0.40;0.40;;;6.00;99.90;;;;;;5029503;28;20948;-85
2022/05/04 03:21:30;;;;;;;0.40;0.40;;;6.00;99.90;;;;;;5023807;28;20450;-84
2022/05/04 03:23:56;;;;;;;0.30;0.30;;;6.00;99.90;;;;;;5031239;28;22015;-85
2022/05/04 03:26:21;;;;;;;0.40;0.40;;;5.90;99.90;;;;;;5031060;28;20215;-85
2022/05/04 03:28:47;;;;;;;0.40;0.40;;;6.10;99.90;;;;;;5040794;28;20466;-85
2022/05/04 03:31:13;;;;;;;0.40;0.40;;;6.10;99.90;;;;;;5013651;28;20188;-85
2022/05/04 03:33:38;;;;;;;0.30;0.30;;;6.10;99.90;;;;;;5010492;28;20203;-85
2022/05/04 03:36:04;;;;;;;0.40;0.40;;;6.00;99.90;;;;;;5069599;28;20218;-86
2022/05/04 03:38:29;;;;;;;0.40;0.40;;;6.00;99.90;;;;;;5024762;28;20179;-85
2022/05/04 03:40:55;;;;;;;0.40;0.40;;;6.00;99.90;;;;;;5011912;28;20201;-86
2022/05/04 03:43:20;;;;;;;0.30;0.30;;;5.90;99.90;;;;;;5026343;28;20307;-85
2022/05/04 03:45:46;;;;;;;0.40;0.40;;;5.90;99.90;;;;;;5019096;28;20196;-85
2022/05/04 03:48:11;;;;;;;0.40;0.40;;;5.80;99.90;;;;;;5022062;28;20290;-85
2022/05/04 03:50:37;;;;;;;0.40;0.40;;;5.60;99.90;;;;;;5020799;28;20184;-85
2022/05/04 03:53:02;;;;;;;0.30;0.30;;;5.80;99.90;;;;;;5019639;28;20226;-85
2022/05/04 03:55:28;;;;;;;0.37;0.37;;;5.80;99.90;;;;;;5016181;28;20201;-85
2022/05/04 03:57:53;;;;;;;0.30;0.30;;;5.70;99.90;;;;;;5021276;28;20203;-85
2022/05/04 04:00:19;;;;;;;0.40;0.40;;;5.80;99.90;;;;;;5016282;28;20190;-85
2022/05/04 04:02:45;;;;;;;0.40;0.40;;;5.70;99.90;;;;;;5015654;28;20955;-85
2022/05/04 04:05:10;;;;;;;0.30;0.30;;;5.60;99.90;;;;;;5014959;28;20275;-86
2022/05/04 04:07:36;;;;;;;0.40;0.40;;;5.50;99.90;;;;;;5029538;28;20186;-85
2022/05/04 04:10:02;;;;;;;0.40;0.40;;;5.60;99.90;;;;;;5020445;28;20289;-85
2022/05/04 04:12:27;;;;;;;0.40;0.40;;;5.50;99.90;;;;;;5021807;28;20230;-86
2022/05/04 04:14:53;;;;;;;0.40;0.40;;;5.40;99.90;;;;;;5031017;28;20489;-86
2022/05/04 04:17:18;;;;;;;0.40;0.40;;;5.60;99.90;;;;;;5024334;28;20231;-85
2022/05/04 04:19:44;;;;;;;0.40;0.40;;;5.70;99.90;;;;;;5046019;28;20184;-85
2022/05/04 04:22:09;;;;;;;0.40;0.40;;;5.60;99.90;;;;;;5028378;28;20190;-85
2022/05/04 04:24:35;;;;;;;0.40;0.40;;;5.60;99.90;;;;;;5022030;28;20191;-85
2022/05/04 04:27:01;;;;;;;0.40;0.40;;;5.60;99.90;;;;;;5032853;28;20249;-85
2022/05/04 04:29:26;;;;;;;0.40;0.40;;;5.50;99.90;;;;;;5018092;28;20183;-85
2022/05/04 04:31:52;;;;;;;0.30;0.30;;;5.60;99.90;;;;;;5017773;28;20204;-85
2022/05/04 04:34:17;;;;;;;0.40;0.40;;;5.60;99.90;;;;;;5019950;28;20251;-85
2022/05/04 04:36:43;;;;;;;0.40;0.40;;;5.50;99.90;;;;;;5027514;28;20232;-86
2022/05/04 04:39:08;;;;;;;0.40;0.40;;;5.60;99.90;;;;;;5016400;28;20250;-86
2022/05/04 04:41:34;;;;;;;0.30;0.30;;;5.60;99.90;;;;;;5018684;28;20199;-86
2022/05/04 04:44:00;;;;;;;0.37;0.37;;;5.60;99.90;;;;;;5021642;28;20679;-85
2022/05/04 04:46:26;;;;;;;0.30;0.30;;;5.50;99.90;;;;;;5025368;28;20183;-85
2022/05/04 04:48:52;;;;;;;0.30;0.30;;;5.60;99.90;;;;;;5021042;28;20948;-86
2022/05/04 04:51:17;;;;;;;0.30;0.30;;;5.60;99.90;;;;;;5018688;28;20268;-85
2022/05/04 04:53:43;;;;;;;0.30;0.30;;;5.60;99.90;;;;;;5030024;28;20188;-86
2022/05/04 04:56:08;;;;;;;0.37;0.37;;;5.50;99.90;;;;;;5040132;28;20263;-86
2022/05/04 04:58:34;;;;;;;0.50;0.50;;;5.50;99.90;;;;;;5016433;28;20553;-86
2022/05/04 05:00:59;;;;;;;0.40;0.40;;;5.60;99.90;;;;;;5009550;28;20638;-86
2022/05/04 05:03:25;;;;;;;0.37;0.37;;;5.70;99.90;;;;;;5023641;28;20194;-87
2022/05/04 05:05:50;;;;;;;0.40;0.40;;;5.70;99.90;;;;;;5047413;28;20639;-85
2022/05/04 05:08:16;;;;;;;0.40;0.40;;;6.00;99.90;;;;;;5059266;28;20283;-85
2022/05/04 05:10:42;;;;;;;0.40;0.40;;;6.00;99.90;;;;;;5026027;28;20246;-87
2022/05/04 05:13:08;;;;;;;0.30;0.30;;;6.10;99.90;;;;;;5022019;28;20269;-87
2022/05/04 05:18:20;;;;;;;0.30;0.30;;;6.20;99.90;;;;;;5041984;28;20543;-86
2022/05/04 05:20:46;;;;;;;0.30;0.30;;;6.20;99.90;;;;;;5027656;28;20470;-85
2022/05/04 05:23:12;;;;;;;0.30;0.30;;;6.30;99.90;;;;;;5024769;28;20498;-85
2022/05/04 05:25:37;;;;;;;0.30;0.30;;;6.20;99.90;;;;;;5016726;28;20445;-86
2022/05/04 05:28:03;;;;;;;0.30;0.30;;;6.40;99.90;;;;;;5029509;28;20950;-85
2022/05/04 05:30:28;;;;;;;0.30;0.30;;;6.60;99.90;;;;;;5058818;28;20196;-84
2022/05/04 05:32:54;;;;;;;0.30;0.30;;;6.80;99.90;;;;;;5029599;28;20441;-85
2022/05/04 05:35:20;;;;;;;0.30;0.30;;;6.80;99.90;;;;;;5031048;28;20193;-85
2022/05/04 05:37:46;;;;;;;0.30;0.30;;;6.90;99.90;;;;;;5029831;28;20188;-85
2022/05/04 05:40:12;;;;;;;0.30;0.30;;;7.00;99.90;;;;;;5037750;28;20487;-84
2022/05/04 05:42:37;;;;;;;0.30;0.30;;;7.00;99.90;;;;;;5044056;28;20187;-85
2022/05/04 05:45:03;;;;;;;0.30;0.30;;;7.10;99.90;;;;;;5041155;28;20449;-85
2022/05/04 05:47:29;;;;;;;0.20;0.20;;;7.20;99.90;;;;;;5046000;28;20187;-86
2022/05/04 05:49:54;;;;;;;0.30;0.30;;;7.30;99.90;;;;;;5051608;28;20202;-85
2022/05/04 05:52:20;;;;;;;0.30;0.30;;;7.40;99.90;;;;;;5027436;28;20250;-85
2022/05/04 05:54:45;;;;;;;0.30;0.30;;;7.60;99.90;;;;;;5024991;28;20964;-84
2022/05/04 05:57:11;;;;;;;0.30;0.30;;;7.70;99.90;;;;;;5031625;28;20215;-86
2022/05/04 05:59:36;;;;;;;0.30;0.30;;;7.80;99.90;;;;;;5031287;28;20242;-85
2022/05/04 06:02:02;;;;;;;0.20;0.20;;;7.80;99.90;;;;;;5042264;28;20190;-85
2022/05/04 06:04:27;;;;;;;0.20;0.20;;;7.90;99.90;;;;;;5037990;28;20211;-87
2022/05/04 06:06:54;;;;;;;0.30;0.30;;;8.00;99.90;;;;;;5029933;28;20199;-86
2022/05/04 06:09:19;;;;;;;0.30;0.30;;;8.20;99.90;;;;;;5028659;28;20734;-87
2022/05/04 06:11:45;;;;;;;0.27;0.27;;;8.30;99.90;;;;;;5039396;28;20448;-88
2022/05/04 06:14:11;;;;;;;0.20;0.20;;;8.40;99.90;;;;;;5029699;28;20238;-87
2022/05/04 06:16:37;;;;;;;0.30;0.30;;;8.60;99.90;;;;;;5035858;28;20218;-87
2022/05/04 06:19:03;;;;;;;0.30;0.30;;;8.60;99.90;;;;;;5052672;28;20545;-87
2022/05/04 06:21:29;;;;;;;0.20;0.20;;;8.80;99.90;;;;;;5037470;28;20194;-89
2022/05/04 06:23:55;;;;;;;0.30;0.30;;;8.80;99.90;;;;;;5038585;28;20437;-89
2022/05/04 06:26:23;;;;;;;0.20;0.20;;;8.80;99.90;;;;;;5027713;28;21010;-89
2022/05/04 06:28:49;;;;;;;0.30;0.30;;;9.00;99.90;;;;;;5032532;28;20191;-89
2022/05/04 06:34:11;;;;;;;0.30;0.30;;;9.10;99.90;;;;;;5028081;28;20449;-88
2022/05/04 06:36:39;;;;;;;0.20;0.20;;;9.20;99.90;;;;;;5024397;28;20906;-85
2022/05/04 06:39:06;;;;;;;0.20;0.20;;;9.30;99.90;;;;;;5036879;28;20920;-87
2022/05/04 06:41:32;;;;;;;0.20;0.20;;;9.40;99.90;;;;;;5064727;28;20458;-87
2022/05/04 06:43:58;;;;;;;0.20;0.20;;;9.70;99.90;;;;;;5053234;28;20450;-87
2022/05/04 06:46:23;;;;;;;0.20;0.20;;;9.70;99.90;;;;;;5027694;28;20493;-84
2022/05/04 06:48:49;;;;;;;0.20;0.20;;;9.80;99.90;;;;;;5043571;28;20282;-84
2022/05/04 06:51:14;;;;;;;0.20;0.20;;;9.90;99.90;;;;;;5026323;28;20172;-87
2022/05/04 06:53:40;;;;;;;0.20;0.20;;;9.90;99.90;;;;;;5026528;28;20756;-85
2022/05/04 06:56:05;;;;;;;0.20;0.20;;;9.90;99.90;;;;;;5025615;28;20680;-86
2022/05/04 06:58:31;;;;;;;0.13;0.13;;;10.10;99.90;;;;;;5031448;28;20719;-88
2022/05/04 07:00:56;;;;;;;0.20;0.20;;;10.20;99.90;;;;;;5028257;28;20631;-89
2022/05/04 07:03:22;;;;;;;0.20;0.20;;;10.40;99.90;;;;;;5025898;28;20183;-87
2022/05/04 07:05:48;;;;;;;0.20;0.20;;;10.30;99.90;;;;;;5020652;28;20197;-87
2022/05/04 07:08:14;;;;;;;0.10;0.10;;;10.20;99.90;;;;;;5019525;28;20176;-88
2022/05/04 07:10:39;;;;;;;0.20;0.20;;;10.50;99.90;;;;;;5026864;28;20958;-88
2022/05/04 07:13:06;;;;;;;0.20;0.20;;;10.50;99.90;;;;;;5024144;28;20223;-88
2022/05/04 07:15:32;;;;;;;0.20;0.20;;;10.60;99.90;;;;;;5036174;28;20761;-86
2022/05/04 07:17:57;;;;;;;0.20;0.20;;;10.50;99.90;;;;;;5056077;28;20542;-87
2022/05/04 07:20:23;;;;;;;0.20;0.20;;;10.70;99.90;;;;;;5024091;28;20247;-85
2022/05/04 07:22:49;;;;;;;0.20;0.20;;;10.90;99.90;;;;;;5024795;28;20202;-88
2022/05/04 07:25:14;;;;;;;0.20;0.20;;;11.00;99.90;;;;;;5028519;28;20647;-89
2022/05/04 07:27:40;;;;;;;0.20;0.20;;;11.30;99.90;;;;;;5041539;28;20192;-87
2022/05/04 07:30:06;;;;;;;0.20;0.20;;;11.50;99.90;;;;;;5043853;28;20198;-90
2022/05/04 07:32:31;;;;;;;0.20;0.20;;;11.40;99.90;;;;;;5031699;28;20176;-90
2022/05/04 07:34:57;;;;;;;0.20;0.20;;;11.50;99.90;;;;;;5046662;28;20454;-89
2022/05/04 07:37:22;;;;;;;0.20;0.20;;;11.40;99.90;;;;;;5031355;28;20237;-87
2022/05/04 07:42:32;;;;;;;0.20;0.20;;;10.90;99.90;;;;;;5016251;28;20669;-86
2022/05/04 07:45:03;;;;;;;0.20;0.20;;;11.00;99.90;;;;;;5032995;28;20453;-86
2022/05/04 07:47:30;;;;;;;0.17;0.17;;;10.90;99.90;;;;;;5030579;28;20184;-85
2022/05/04 07:49:57;;;;;;;0.20;0.20;;;10.70;99.90;;;;;;5029011;28;20453;-84
2022/05/04 07:52:23;;;;;;;0.30;0.30;;;10.80;99.90;;;;;;5030412;28;20541;-86
2022/05/04 07:54:49;;;;;;;0.20;0.20;;;11.20;99.90;;;;;;5030445;28;20445;-86
2022/05/04 07:57:15;;;;;;;0.10;0.10;;;11.30;99.90;;;;;;5031854;28;21011;-87
2022/05/04 07:59:41;;;;;;;0.20;0.20;;;11.30;99.90;;;;;;5029273;28;20808;-85
2022/05/04 08:04:51;;;;;;;0.20;0.20;;;11.70;99.90;;;;;;5031829;28;20193;-86
2022/05/04 08:07:17;;;;;;;0.23;0.23;;;11.70;99.90;;;;;;5034315;28;20871;-88
2022/05/04 08:09:43;;;;;;;0.10;0.10;;;12.20;99.90;;;;;;5030286;28;20443;-86
2022/05/04 08:12:11;;;;;;;0.17;0.17;;;12.50;99.90;;;;;;5031035;28;20813;-87
2022/05/04 08:14:36;;;;;;;0.20;0.20;;;13.40;99.90;;;;;;5027982;28;20228;-87
2022/05/04 08:17:02;;;;;;;0.10;0.10;;;13.70;99.90;;;;;;5016806;28;20482;-87
2022/05/04 08:19:29;;;;;;;0.10;0.10;;;13.00;99.90;;;;;;5030186;28;20204;-87
2022/05/04 08:21:56;;;;;;;0.10;0.10;;;12.30;99.90;;;;;;5025493;28;20453;-87
2022/05/04 08:24:21;;;;;;;0.10;0.10;;;11.70;99.90;;;;;;5027427;28;20183;-87
2022/05/04 08:26:47;;;;;;;0.20;0.20;;;11.80;99.90;;;;;;5035764;28;20494;-87
2022/05/04 08:29:12;;;;;;;0.10;0.10;;;12.10;99.90;;;;;;5018130;28;20200;-88
2022/05/04 08:31:38;;;;;;;0.20;0.20;;;12.10;99.90;;;;;;5024733;28;20219;-86
2022/05/04 08:34:04;;;;;;;0.10;0.10;;;12.10;99.90;;;;;;5017939;28;20232;-87
2022/05/04 08:36:29;;;;;;;0.10;0.10;;;12.60;99.90;;;;;;5037024;28;20317;-85
2022/05/04 08:38:55;;;;;;;0.20;0.20;;;13.10;99.90;;;;;;5020089;28;20262;-89
2022/05/04 08:41:22;;;;;;;0.10;0.10;;;12.60;99.90;;;;;;5018476;28;20194;-87
2022/05/04 08:43:50;;;;;;;0.10;0.10;;;12.40;99.90;;;;;;5029957;28;20184;-87
2022/05/04 08:46:20;;;;;;;0.10;0.10;;;12.60;99.90;;;;;;5020733;28;20548;-85
2022/05/04 08:48:47;;;;;;;0.10;0.10;;;13.20;99.90;;;;;;5028100;28;20458;-85
2022/05/04 08:51:14;;;;;;;0.10;0.10;;;13.20;99.90;;;;;;5009395;28;20431;-87
2022/05/04 08:53:42;;;;;;;0.13;0.13;;;12.30;99.90;;;;;;5057017;28;20465;-87
2022/05/04 08:56:08;;;;;;;0.10;0.10;;;12.80;99.90;;;;;;5013048;28;20478;-87
2022/05/04 08:58:37;;;;;;;0.10;0.10;;;13.00;99.90;;;;;;5014279;28;20466;-86
2022/05/04 09:01:03;;;;;;;0.10;0.10;;;12.80;99.90;;;;;;5025386;28;20194;-86
2022/05/04 09:03:29;;;;;;;0.20;0.20;;;12.10;99.90;;;;;;5030326;28;20454;-87
2022/05/04 09:05:55;;;;;;;0.10;0.10;;;11.80;99.90;;;;;;5043870;28;20453;-88
2022/05/04 09:08:23;;;;;;;0.10;0.10;;;11.90;99.90;;;;;;5036972;28;20496;-88
2022/05/04 09:10:49;;;;;;;0.10;0.10;;;12.60;99.90;;;;;;5040613;28;20593;-89
2022/05/04 09:13:17;;;;;;;0.00;0.00;;;13.40;99.90;;;;;;5035911;28;20452;-87
2022/05/04 09:15:43;;;;;;;0.10;0.10;;;14.20;99.90;;;;;;5033798;28;20279;-89
2022/05/04 09:18:13;;;;;;;0.10;0.10;;;14.00;99.90;;;;;;5028808;28;20485;-88
2022/05/04 09:20:48;;;;;;;0.10;0.10;;;13.80;99.90;;;;;;5017986;28;20179;-87
2022/05/04 09:23:18;;;;;;;0.10;0.10;;;13.90;99.90;;;;;;5028990;28;20468;-87
2022/05/04 09:25:44;;;;;;;0.10;0.10;;;14.70;99.90;;;;;;5031379;28;20454;-88
2022/05/04 09:28:14;;;;;;;0.17;0.17;;;15.20;99.90;;;;;;5055168;28;20457;-88
2022/05/04 09:30:48;;;;;;;0.10;0.10;;;15.50;99.90;;;;;;5044166;28;20261;-91
2022/05/04 09:33:28;;;;;;;0.10;0.10;;;15.00;99.90;;;;;;5051667;28;20837;-87
2022/05/04 09:35:55;;;;;;;0.20;0.20;;;13.90;99.90;;;;;;5029285;28;20465;-88
2022/05/04 09:46:45;;;;;;;0.10;0.10;;;13.30;99.90;;;;;;5034958;28;20453;-87
2022/05/04 09:49:18;;;;;;;0.20;0.20;;;13.00;99.90;;;;;;5048437;28;20452;-88
2022/05/04 09:51:50;;;;;;;0.10;0.10;;;13.40;99.90;;;;;;5033462;28;20476;-87
2022/05/04 09:54:20;;;;;;;0.10;0.10;;;13.40;99.90;;;;;;5025551;28;20476;-88
2022/05/04 09:56:54;;;;;;;0.10;0.10;;;13.70;99.90;;;;;;5035905;28;20485;-87
2022/05/04 09:59:31;;;;;;;0.10;0.10;;;14.60;99.90;;;;;;5032365;28;20442;-87
2022/05/04 10:01:59;;;;;;;0.10;0.07;;;15.00;99.90;;;;;;5031930;28;20548;-88
2022/05/04 10:04:25;;;;;;;0.00;0.00;;;16.30;99.90;;;;;;5033632;28;20956;-89
2022/05/04 10:06:52;;;;;;;0.10;0.10;;;16.30;99.90;;;;;;5027934;28;20547;-88
2022/05/04 10:09:18;;;;;;;0.10;0.10;;;16.10;99.90;;;;;;5044458;28;20453;-89
2022/05/04 10:11:44;;;;;;;0.10;0.10;;;16.50;99.90;;;;;;5028512;28;20515;-88
2022/05/04 10:14:13;;;;;;;0.10;0.10;;;16.10;98.70;;;;;;5036910;28;20495;-88
2022/05/04 10:17:14;;;;;;;0.10;0.10;;;15.00;99.50;;;;;;5032083;28;20309;-87
2022/05/04 10:19:57;;;;;;;0.10;0.10;;;14.50;99.90;;;;;;5028955;28;20849;-86
2022/05/04 10:22:36;;;;;;;0.10;0.10;;;14.30;99.90;;;;;;5033990;28;20507;-88
2022/05/04 10:25:04;;;;;;;0.10;0.10;;;14.00;99.90;;;;;;5013140;28;20989;-91
2022/05/04 10:27:29;;;;;;;0.10;0.10;;;15.10;99.90;;;;;;5037616;28;20446;-85
2022/05/04 10:32:46;;;;;;;0.10;0.10;;;16.30;99.90;;;;;;5028705;28;20549;-89
2022/05/04 10:35:38;;;;;;;0.10;0.10;;;17.20;99.90;;;;;;5035120;28;20496;-91
2022/05/04 10:38:10;;;;;;;0.10;0.10;;;16.70;98.00;;;;;;5026183;28;20539;-89
2022/05/04 10:40:47;;;;;;;0.10;0.10;;;16.00;98.80;;;;;;5043200;28;20848;-90
2022/05/04 10:43:16;;;;;;;0.10;0.10;;;15.50;99.90;;;;;;5041833;28;20537;-87
2022/05/04 10:45:44;;;;;;;0.10;0.10;;;14.80;99.90;;;;;;5023079;28;21193;-91
2022/05/04 10:48:13;;;;;;;0.10;0.10;;;14.30;99.90;;;;;;5029998;28;20435;-88
2022/05/04 10:50:58;;;;;;;0.10;0.10;;;14.30;99.90;;;;;;5026116;28;20453;-87
2022/05/04 10:53:24;;;;;;;0.10;0.10;;;14.00;99.90;;;;;;5026640;28;20450;-88
2022/05/04 10:56:01;;;;;;;0.10;0.10;;;13.90;99.90;;;;;;5032227;28;20802;-88
2022/05/04 10:58:49;;;;;;;0.10;0.10;;;13.70;99.90;;;;;;5050074;28;20190;-89
2022/05/04 11:01:31;;;;;;;0.10;0.10;;;14.20;99.90;;;;;;5043606;28;20446;-87
2022/05/04 11:03:58;;;;;;;0.10;0.10;;;14.20;99.90;;;;;;5016346;28;20442;-87
2022/05/04 11:06:23;;;;;;;0.10;0.10;;;13.90;99.90;;;;;;5028896;28;20446;-86
2022/05/04 11:08:49;;;;;;;0.10;0.10;;;13.50;99.90;;;;;;5037835;28;20463;-90
2022/05/04 11:11:15;;;;;;;0.13;0.13;;;13.70;99.90;;;;;;5029331;28;20181;-88
2022/05/04 11:13:43;;;;;;;0.10;0.10;;;14.40;99.90;;;;;;5035413;28;20188;-88
2022/05/04 11:16:09;;;;;;;0.10;0.10;;;15.90;99.90;;;;;;5036868;28;20469;-86
2022/05/04 11:18:35;;;;;;;0.10;0.00;;;16.90;97.00;;;;;;5028761;28;20450;-87
2022/05/04 11:21:05;;;;;;;0.10;0.10;;;17.60;95.10;;;;;;5033944;28;20434;-89
2022/05/04 11:23:31;;;;;;;0.10;0.10;;;16.50;95.80;;;;;;5033447;28;20207;-89
2022/05/04 11:25:56;;;;;;;0.10;0.10;;;15.90;98.20;;;;;;5044362;28;20474;-88
2022/05/04 11:28:25;;;;;;;0.10;0.10;;;15.40;96.50;;;;;;5028721;28;21030;-85
2022/05/04 11:30:54;;;;;;;0.10;0.10;;;15.10;96.90;;;;;;5026340;28;20196;-86
2022/05/04 11:33:20;;;;;;;0.10;0.10;;;15.40;99.90;;;;;;5028098;28;20426;-89
2022/05/04 11:35:55;;;;;;;0.10;0.10;;;16.80;99.90;;;;;;5031903;28;20450;-88
2022/05/04 11:38:22;;;;;;;0.10;0.10;;;17.70;94.30;;;;;;5025405;28;20274;-89
2022/05/04 11:40:49;;;;;;;0.10;0.10;;;17.70;93.10;;;;;;5079012;28;20808;-91
2022/05/04 11:43:34;;;;;;;0.10;0.10;;;17.60;93.30;;;;;;5043086;28;20438;-89
2022/05/04 11:46:06;;;;;;;0.10;0.10;;;17.90;92.50;;;;;;5014338;28;20552;-87
2022/05/04 11:48:33;;;;;;;0.10;0.10;;;16.60;94.40;;;;;;5020383;28;20455;-84
2022/05/04 11:50:59;;;;;;;0.10;0.10;;;16.10;94.40;;;;;;5023466;28;21031;-85
2022/05/04 11:53:28;;;;;;;0.10;0.10;;;16.40;95.50;;;;;;5027872;28;20435;-87
2022/05/04 11:55:53;;;;;;;0.10;0.00;;;16.40;95.80;;;;;;5029713;28;20770;-87
2022/05/04 11:58:19;;;;;;;0.10;0.10;;;17.30;96.70;;;;;;5029173;28;20438;-87
2022/05/04 12:00:44;;;;;;;0.10;0.00;;;16.80;94.80;;;;;;5024952;28;20192;-87
2022/05/04 12:03:11;;;;;;;0.10;0.10;;;16.40;94.40;;;;;;5028868;28;20183;-86
2022/05/04 12:05:38;;;;;;;0.10;0.10;;;16.00;96.00;;;;;;5024033;28;20276;-85
2022/05/04 12:08:06;;;;;;;0.10;0.00;;;17.80;95.10;;;;;;5029005;28;20478;-86
2022/05/04 12:10:32;;;;;;;0.10;0.00;;;19.00;95.30;;;;;;5039583;28;20449;-90
2022/05/04 12:12:59;;;;;;;0.10;0.00;;;18.20;92.10;;;;;;5027964;28;20454;-92
2022/05/04 12:15:27;;;;;;;0.10;0.00;;;17.60;93.30;;;;;;5028070;28;20480;-90
2022/05/04 12:18:02;;;;;;;0.10;0.00;;;16.40;93.90;;;;;;5025795;28;20486;-87
2022/05/04 12:20:28;;;;;;;0.10;0.00;;;17.70;95.60;;;;;;5026957;28;20430;-85
2022/05/04 12:22:55;;;;;;;0.00;0.00;;;18.50;92.90;;;;;;5029308;28;20884;-88
2022/05/04 12:25:25;;;;;;;0.00;0.00;;;17.40;93.40;;;;;;5021594;28;20430;-87
2022/05/04 12:27:55;;;;;;;0.00;0.00;;;18.10;94.00;;;;;;5025128;28;20504;-88
2022/05/04 12:33:11;;;;;;;0.00;0.00;;;18.30;90.70;;;;;;5026249;28;20750;-85
2022/05/04 12:35:38;;;;;;;0.00;0.00;;;17.30;93.70;;;;;;5022525;28;20487;-86
2022/05/04 12:38:05;;;;;;;0.00;0.00;;;17.20;92.00;;;;;;5020677;28;20450;-85
2022/05/04 12:40:32;;;;;;;0.00;0.00;;;17.20;95.30;;;;;;5025365;28;20462;-85
2022/05/04 12:43:00;;;;;;;0.00;0.00;;;17.20;95.60;;;;;;5024243;28;20447;-87
2022/05/04 12:45:27;;;;;;;0.00;0.00;;;18.20;93.20;;;;;;5060590;28;20521;-86
2022/05/04 12:47:54;;;;;;;0.00;0.00;;;19.10;92.50;;;;;;5027703;28;20447;-86
2022/05/04 12:50:24;;;;;;;0.00;0.00;;;19.30;92.70;;;;;;5027775;28;20541;-86
2022/05/04 12:52:50;;;;;;;0.00;0.00;;;19.70;93.30;;;;;;5028036;28;20446;-82
2022/05/04 12:55:16;;;;;;;0.00;0.00;;;19.30;91.60;;;;;;5026813;28;20454;-83
2022/05/04 12:57:42;;;;;;;0.00;0.00;;;19.90;90.50;;;;;;5024064;28;20226;-84
2022/05/04 13:00:08;;;;;;;0.00;0.00;;;20.10;90.80;;;;;;5027098;28;20462;-96
2022/05/04 13:02:34;;;;;;;0.00;0.00;;;20.00;91.00;;;;;;5041225;28;20185;-96
2022/05/04 13:05:00;;;;;;;0.00;0.00;;;20.10;90.20;;;;;;5041242;28;20495;-94
2022/05/04 13:07:25;;;;;;;0.00;0.00;;;19.60;91.70;;;;;;5023240;28;20222;-96
2022/05/04 13:09:51;;;;;;;0.00;0.00;;;19.90;89.00;;;;;;5041100;28;20188;-95
2022/05/04 13:12:16;;;;;;;0.00;0.00;;;19.40;90.70;;;;;;5064906;28;20871;-95
2022/05/04 13:14:42;;;;;;;0.00;0.00;;;19.00;90.80;;;;;;5041203;28;20233;-96
2022/05/04 13:17:08;;;;;;;0.00;0.00;;;18.10;92.20;;;;;;5022015;28;20203;-94
2022/05/04 13:19:35;;;;;;;0.00;0.00;;;17.40;91.90;;;;;;5052595;28;21727;-96
2022/05/04 13:22:00;;;;;;;0.00;0.00;;;17.50;94.20;;;;;;5036515;28;20183;-92
2022/05/04 13:24:26;;;;;;;0.00;0.00;;;18.20;93.60;;;;;;5036634;28;20452;-89